Grant, Michigan
Current Conditions -  °F | °C
As of 12:54 PM on Tuesday 21 Oct 2014 (Local Time) from KFFX Reporting Station
Overcast Overcast  
Wind Chill: 44°   Ceiling: 2700
Heat Index: 48°   Visibility: 10mi
Dew Point: 36°   Wind: 8mph
Humidity: 64%   Direction: 30°NNE
Pressure: 30.15"   Gusts: NA
Location:  43.34°N, 85.81°W
Report Text: KFFX 211654Z AUTO 03007KT 10SM OVC027 09/02 A3015 RMK AO2 T00880023
Loading
Personal Weather Stations






























Interactive Weather Map
Tropical Storm Tracking
New forecast layout! Learn more

10-Day Weather Forecast

Advertisements
Track Severe Weather on mobile